createdAt,value
2019-01-29T00:00:40.681Z,3.01
2019-01-29T00:01:40.666Z,2.98
2019-01-29T00:02:40.600Z,2.94
2019-01-29T00:03:40.577Z,2.87
2019-01-29T00:04:40.570Z,2.92
2019-01-29T00:05:40.579Z,2.97
2019-01-29T00:06:40.582Z,2.95
2019-01-29T00:07:40.535Z,2.92
2019-01-29T00:08:40.517Z,2.86
2019-01-29T00:09:40.538Z,2.87
2019-01-29T00:10:40.544Z,2.92
2019-01-29T00:11:40.513Z,2.86
2019-01-29T00:12:40.477Z,2.98
2019-01-29T00:13:40.505Z,3.01
2019-01-29T00:14:40.472Z,3.01
2019-01-29T00:15:40.443Z,2.97
2019-01-29T00:16:40.530Z,2.97
2019-01-29T00:17:40.426Z,3.05
2019-01-29T00:18:40.416Z,3.04
2019-01-29T00:19:40.418Z,2.99
2019-01-29T00:20:40.391Z,3.05
2019-01-29T00:21:40.422Z,2.87
2019-01-29T00:22:40.372Z,2.92
2019-01-29T00:23:40.358Z,2.89
2019-01-29T00:24:40.364Z,2.92
2019-01-29T00:25:40.343Z,2.94
2019-01-29T00:26:40.356Z,3.01
2019-01-29T00:27:40.348Z,2.86
2019-01-29T00:28:40.308Z,2.87
2019-01-29T00:29:40.294Z,2.89
2019-01-29T00:30:40.294Z,2.84
2019-01-29T00:31:40.298Z,2.90
2019-01-29T00:32:40.275Z,2.83
2019-01-29T00:33:40.311Z,2.87
2019-01-29T00:34:40.255Z,2.94
2019-01-29T00:35:40.235Z,2.89
2019-01-29T00:36:40.244Z,2.90
2019-01-29T00:37:40.215Z,2.92
2019-01-29T00:38:40.203Z,2.83
2019-01-29T00:39:40.186Z,2.90
2019-01-29T00:40:40.229Z,2.89
2019-01-29T00:41:40.196Z,2.92
2019-01-29T00:42:40.163Z,2.89
2019-01-29T00:43:40.148Z,2.90
2019-01-29T00:44:40.141Z,2.86
2019-01-29T00:45:40.127Z,2.92
2019-01-29T00:46:40.118Z,2.84
2019-01-29T00:47:40.163Z,2.83
2019-01-29T00:48:40.088Z,2.79
2019-01-29T00:49:40.078Z,2.79
2019-01-29T00:50:40.068Z,2.83
2019-01-29T00:51:40.058Z,2.81
2019-01-29T00:52:42.106Z,2.80
2019-01-29T00:53:40.120Z,2.81
2019-01-29T00:54:40.026Z,2.80
2019-01-29T00:55:40.026Z,2.83
2019-01-29T00:56:40.014Z,2.84
2019-01-29T00:57:40.023Z,2.87
2019-01-29T00:58:39.982Z,2.87
2019-01-29T00:59:40.002Z,3.01
2019-01-29T01:00:39.961Z,2.87
2019-01-29T01:01:39.993Z,2.92
2019-01-29T01:02:40.022Z,2.89
2019-01-29T01:03:39.965Z,2.90
2019-01-29T01:04:39.920Z,2.86
2019-01-29T01:05:39.959Z,2.89
2019-01-29T01:06:39.913Z,2.77
2019-01-29T01:07:39.896Z,2.81
2019-01-29T01:08:39.921Z,2.73
2019-01-29T01:09:39.865Z,2.73
2019-01-29T01:10:39.858Z,2.73
2019-01-29T01:11:39.845Z,2.77
2019-01-29T01:12:39.837Z,2.73
2019-01-29T01:13:39.859Z,2.77
2019-01-29T01:14:39.809Z,2.68
2019-01-29T01:15:39.877Z,2.66
2019-01-29T01:16:39.812Z,2.76
2019-01-29T01:17:39.783Z,2.66
2019-01-29T01:18:39.770Z,2.69
2019-01-29T01:19:39.784Z,2.62
2019-01-29T01:20:39.758Z,2.63
2019-01-29T01:21:39.739Z,2.58
2019-01-29T01:22:39.788Z,2.63
2019-01-29T01:23:39.714Z,2.58
2019-01-29T01:24:39.729Z,2.58
2019-01-29T01:25:39.692Z,2.62
2019-01-29T01:26:39.690Z,2.61
2019-01-29T01:27:39.684Z,2.58
2019-01-29T01:28:39.702Z,2.61
2019-01-29T01:29:39.675Z,2.59
2019-01-29T01:30:39.672Z,2.58
2019-01-29T01:31:39.649Z,2.59
2019-01-29T01:32:39.632Z,2.58
2019-01-29T01:33:39.621Z,2.59
2019-01-29T01:34:39.625Z,2.58
2019-01-29T01:35:39.665Z,2.55
2019-01-29T01:36:39.589Z,2.63
2019-01-29T01:37:39.608Z,2.59
2019-01-29T01:38:39.575Z,2.61
2019-01-29T01:39:39.582Z,2.55
2019-01-29T01:40:39.608Z,2.62
2019-01-29T01:41:39.529Z,2.53
2019-01-29T01:42:39.526Z,2.59
2019-01-29T01:43:39.501Z,2.61
2019-01-29T01:44:39.539Z,2.61
2019-01-29T01:45:39.526Z,2.61
2019-01-29T01:46:39.482Z,2.59
2019-01-29T01:47:39.550Z,2.59
2019-01-29T01:48:39.447Z,2.55
2019-01-29T01:49:39.439Z,2.58
2019-01-29T01:50:39.510Z,2.62
2019-01-29T01:51:39.434Z,2.61
2019-01-29T01:52:39.412Z,2.66
2019-01-29T01:53:39.448Z,2.61
2019-01-29T01:54:39.396Z,2.66
2019-01-29T01:55:39.376Z,2.69
2019-01-29T01:56:39.436Z,2.62
2019-01-29T01:57:39.381Z,2.68
2019-01-29T01:58:39.343Z,2.71
2019-01-29T01:59:39.365Z,2.63
2019-01-29T02:00:39.316Z,2.69
2019-01-29T02:01:39.351Z,2.76
2019-01-29T02:02:39.299Z,2.69
2019-01-29T02:03:39.287Z,2.66
2019-01-29T02:04:39.316Z,2.71
2019-01-29T02:05:39.339Z,2.63
2019-01-29T02:06:39.275Z,2.63
2019-01-29T02:07:39.240Z,2.59
2019-01-29T02:08:39.257Z,2.61
2019-01-29T02:09:39.217Z,2.65
2019-01-29T02:10:39.244Z,2.61
2019-01-29T02:11:39.234Z,2.58
2019-01-29T02:12:39.185Z,2.62
2019-01-29T02:13:39.195Z,2.59
2019-01-29T02:14:39.183Z,2.53
2019-01-29T02:15:39.163Z,2.61
2019-01-29T02:16:39.180Z,2.59
2019-01-29T02:17:39.133Z,2.59
2019-01-29T02:18:39.178Z,2.58
2019-01-29T02:19:39.112Z,2.65
2019-01-29T02:20:39.104Z,2.58
2019-01-29T02:21:39.114Z,2.56
2019-01-29T02:22:39.094Z,2.58
2019-01-29T02:23:39.112Z,2.55
2019-01-29T02:24:39.087Z,2.62
2019-01-29T02:25:39.050Z,2.55
2019-01-29T02:26:39.075Z,2.59
2019-01-29T02:27:39.025Z,2.59
2019-01-29T02:28:39.040Z,2.56
2019-01-29T02:29:39.092Z,2.59
2019-01-29T02:30:39.011Z,2.56
2019-01-29T02:31:39.049Z,2.59
2019-01-29T02:32:38.984Z,2.58
2019-01-29T02:33:39.012Z,2.63
2019-01-29T02:34:38.952Z,2.59
2019-01-29T02:35:38.946Z,2.51
2019-01-29T02:36:38.964Z,2.51
2019-01-29T02:37:38.940Z,2.53
2019-01-29T02:38:38.912Z,2.48
2019-01-29T02:39:39.022Z,2.50
2019-01-29T02:40:38.896Z,2.45
2019-01-29T02:41:38.880Z,2.48
2019-01-29T02:42:38.946Z,2.48
2019-01-29T02:43:38.893Z,2.53
2019-01-29T02:44:38.856Z,2.47
2019-01-29T02:45:38.921Z,2.47
2019-01-29T02:46:38.823Z,2.53
2019-01-29T02:47:38.881Z,2.47
2019-01-29T02:48:38.854Z,2.47
2019-01-29T02:49:38.790Z,2.44
2019-01-29T02:50:38.785Z,2.50
2019-01-29T02:51:38.775Z,2.48
2019-01-29T02:52:38.808Z,2.44
2019-01-29T02:53:38.837Z,2.45
2019-01-29T02:54:38.760Z,2.40
2019-01-29T02:55:38.735Z,2.41
2019-01-29T02:56:38.717Z,2.43
2019-01-29T02:57:38.719Z,2.41
2019-01-29T02:58:38.745Z,2.33
2019-01-29T02:59:38.686Z,2.30
2019-01-29T03:00:38.673Z,2.37
2019-01-29T03:01:38.690Z,2.36
2019-01-29T03:02:38.720Z,2.33
2019-01-29T03:03:38.673Z,2.26
2019-01-29T03:04:38.640Z,2.26
2019-01-29T03:05:38.626Z,2.15
2019-01-29T03:06:38.705Z,2.26
2019-01-29T03:07:38.694Z,2.20
2019-01-29T03:08:38.640Z,2.11
2019-01-29T03:09:38.597Z,2.20
2019-01-29T03:10:38.573Z,2.12
2019-01-29T03:11:38.566Z,2.11
2019-01-29T03:12:38.614Z,2.05
2019-01-29T03:13:38.543Z,2.12
2019-01-29T03:14:38.603Z,2.08
2019-01-29T03:15:38.583Z,2.05
2019-01-29T03:16:38.565Z,2.08
2019-01-29T03:17:38.648Z,2.18
2019-01-29T03:18:38.508Z,2.08
2019-01-29T03:19:38.508Z,2.05
2019-01-29T03:20:38.501Z,2.08
2019-01-29T03:21:38.495Z,2.09
2019-01-29T03:22:38.536Z,2.07
2019-01-29T03:23:38.479Z,2.05
2019-01-29T03:24:38.452Z,2.05
2019-01-29T03:25:38.554Z,2.01
2019-01-29T03:26:38.395Z,1.89
2019-01-29T03:27:38.387Z,1.81
2019-01-29T03:28:38.395Z,1.82
2019-01-29T03:29:38.578Z,1.79
2019-01-29T03:30:38.366Z,1.64
2019-01-29T03:31:38.356Z,1.70
2019-01-29T03:32:38.445Z,1.67
2019-01-29T03:33:38.370Z,1.63
2019-01-29T03:34:38.310Z,1.63
2019-01-29T03:35:38.326Z,1.60
2019-01-29T03:36:38.341Z,1.53
2019-01-29T03:37:38.290Z,1.57
2019-01-29T03:38:38.291Z,1.61
2019-01-29T03:39:38.333Z,1.50
2019-01-29T03:40:38.331Z,1.57
2019-01-29T03:41:38.236Z,1.56
2019-01-29T03:42:38.229Z,1.56
2019-01-29T03:43:38.271Z,1.57
2019-01-29T03:44:38.203Z,1.54
2019-01-29T03:45:38.292Z,1.56
2019-01-29T03:46:38.206Z,1.54
2019-01-29T03:47:38.223Z,1.53
2019-01-29T03:48:38.199Z,1.63
2019-01-29T03:49:38.176Z,1.56
2019-01-29T03:50:38.176Z,1.60
2019-01-29T03:51:38.172Z,1.56
2019-01-29T03:52:38.129Z,1.54
2019-01-29T03:53:38.442Z,1.52
2019-01-29T03:54:38.101Z,1.49
2019-01-29T03:55:38.134Z,1.50
2019-01-29T03:56:38.222Z,1.54
2019-01-29T03:57:38.075Z,1.42
2019-01-29T03:58:38.066Z,1.42
2019-01-29T03:59:38.063Z,1.46
2019-01-29T04:00:38.045Z,1.42
2019-01-29T04:01:38.065Z,1.50
2019-01-29T04:02:38.097Z,1.47
2019-01-29T04:03:38.032Z,1.49
2019-01-29T04:04:38.059Z,1.47
2019-01-29T04:05:38.054Z,1.47
2019-01-29T04:06:38.011Z,1.54
2019-01-29T04:07:37.993Z,1.49
2019-01-29T04:08:37.969Z,1.44
2019-01-29T04:09:38.001Z,1.50
2019-01-29T04:10:37.942Z,1.47
2019-01-29T04:11:37.990Z,1.44
2019-01-29T04:12:37.999Z,1.57
2019-01-29T04:13:37.908Z,1.39
2019-01-29T04:14:37.906Z,1.47
2019-01-29T04:15:37.888Z,1.53
2019-01-29T04:16:37.906Z,1.53
2019-01-29T04:17:37.903Z,1.53
2019-01-29T04:18:37.877Z,1.57
2019-01-29T04:19:37.848Z,1.61
2019-01-29T04:20:37.914Z,1.61
2019-01-29T04:21:37.821Z,1.65
2019-01-29T04:22:37.891Z,1.67
2019-01-29T04:23:47.066Z,1.65
2019-01-29T04:24:38.791Z,1.63
2019-01-29T04:25:37.789Z,1.65
2019-01-29T04:26:37.781Z,1.64
2019-01-29T04:27:37.803Z,1.61
2019-01-29T04:28:37.838Z,1.64
2019-01-29T04:29:37.774Z,1.65
2019-01-29T04:30:37.796Z,1.61
2019-01-29T04:31:37.717Z,1.71
2019-01-29T04:32:37.781Z,1.74
2019-01-29T04:33:37.720Z,1.70
2019-01-29T04:34:37.794Z,1.67
2019-01-29T04:35:37.690Z,1.67
2019-01-29T04:36:37.671Z,1.70
2019-01-29T04:37:37.668Z,1.61
2019-01-29T04:38:37.673Z,1.65
2019-01-29T04:39:37.666Z,1.67
2019-01-29T04:40:37.681Z,1.65
2019-01-29T04:41:37.631Z,1.61
2019-01-29T04:42:37.603Z,1.63
2019-01-29T04:43:37.643Z,1.61
2019-01-29T04:44:37.580Z,1.52
2019-01-29T04:45:37.587Z,1.60
2019-01-29T04:46:37.575Z,1.63
2019-01-29T04:47:37.644Z,1.54
2019-01-29T04:48:37.623Z,1.57
2019-01-29T04:49:37.559Z,1.60
2019-01-29T04:50:37.518Z,1.56
2019-01-29T04:51:37.542Z,1.52
2019-01-29T04:52:37.511Z,1.61
2019-01-29T04:53:37.538Z,1.61
2019-01-29T04:54:37.496Z,1.65
2019-01-29T04:55:37.481Z,1.71
2019-01-29T04:56:37.470Z,1.64
2019-01-29T04:57:37.454Z,1.71
2019-01-29T04:58:37.438Z,1.71
2019-01-29T04:59:37.518Z,1.74
2019-01-29T05:00:37.442Z,1.67
2019-01-29T05:01:37.413Z,1.71
2019-01-29T05:02:37.408Z,1.68
2019-01-29T05:03:37.435Z,1.68
2019-01-29T05:04:37.397Z,1.67
2019-01-29T05:05:37.378Z,1.63
2019-01-29T05:06:37.366Z,1.64
2019-01-29T05:07:37.341Z,1.67
2019-01-29T05:08:37.332Z,1.63
2019-01-29T05:09:37.349Z,1.67
2019-01-29T05:10:37.338Z,1.67
2019-01-29T05:11:37.364Z,1.64
2019-01-29T05:12:37.306Z,1.64
2019-01-29T05:13:37.291Z,1.65
2019-01-29T05:14:37.384Z,1.68
2019-01-29T05:15:37.262Z,1.71
2019-01-29T05:16:37.260Z,1.72
2019-01-29T05:17:37.319Z,1.71
2019-01-29T05:18:37.279Z,1.68
2019-01-29T05:19:37.253Z,1.65
2019-01-29T05:20:37.330Z,1.68
2019-01-29T05:21:37.198Z,1.68
2019-01-29T05:22:37.258Z,1.72
2019-01-29T05:23:37.179Z,1.75
2019-01-29T05:24:37.183Z,1.68
2019-01-29T05:25:37.377Z,1.70
2019-01-29T05:26:37.151Z,1.60
2019-01-29T05:27:37.139Z,1.67
2019-01-29T05:28:37.141Z,1.68
2019-01-29T05:29:37.115Z,1.70
2019-01-29T05:30:37.699Z,1.71
2019-01-29T05:31:37.092Z,1.72
2019-01-29T05:32:37.107Z,1.67
2019-01-29T05:33:37.144Z,1.72
2019-01-29T05:34:37.101Z,1.72
2019-01-29T05:35:37.101Z,1.61
2019-01-29T05:36:37.036Z,1.68
2019-01-29T05:37:37.063Z,1.77
2019-01-29T05:38:37.024Z,1.71
2019-01-29T05:39:37.019Z,1.64
2019-01-29T05:40:37.134Z,1.68
2019-01-29T05:41:37.016Z,1.67
2019-01-29T05:42:36.972Z,1.68
2019-01-29T05:43:37.120Z,1.64
2019-01-29T05:44:36.965Z,1.70
2019-01-29T05:45:36.984Z,1.61
2019-01-29T05:46:36.944Z,1.65
2019-01-29T05:47:36.966Z,1.61
2019-01-29T05:48:36.923Z,1.65
2019-01-29T05:49:37.164Z,1.65
2019-01-29T05:50:36.902Z,1.61
2019-01-29T05:51:36.937Z,1.63
2019-01-29T05:52:36.919Z,1.67
2019-01-29T05:53:36.934Z,1.74
2019-01-29T05:54:36.855Z,1.72
2019-01-29T05:55:36.999Z,1.61
2019-01-29T05:56:36.819Z,1.70
2019-01-29T05:57:36.885Z,1.65
2019-01-29T05:58:36.822Z,1.65
2019-01-29T05:59:37.034Z,1.67
2019-01-29T06:00:36.783Z,1.72
2019-01-29T06:01:36.794Z,1.68
2019-01-29T06:02:36.794Z,1.71
2019-01-29T06:03:36.816Z,1.70
2019-01-29T06:04:36.742Z,1.71
2019-01-29T06:05:36.744Z,1.65
2019-01-29T06:06:36.724Z,1.67
2019-01-29T06:07:36.800Z,1.61
2019-01-29T06:08:36.715Z,1.57
2019-01-29T06:09:36.694Z,1.63
2019-01-29T06:10:36.687Z,1.57
2019-01-29T06:11:36.714Z,1.60
2019-01-29T06:12:36.656Z,1.52
2019-01-29T06:13:36.685Z,1.56
2019-01-29T06:14:36.637Z,1.52
2019-01-29T06:15:36.726Z,1.54
2019-01-29T06:16:36.616Z,1.61
2019-01-29T06:17:36.598Z,1.56
2019-01-29T06:18:36.706Z,1.57
2019-01-29T06:19:36.575Z,1.57
2019-01-29T06:20:36.565Z,1.53
2019-01-29T06:21:36.576Z,1.53
2019-01-29T06:22:36.564Z,1.53
2019-01-29T06:23:36.613Z,1.49
2019-01-29T06:24:36.535Z,1.49
2019-01-29T06:25:36.636Z,1.43
2019-01-29T06:26:36.509Z,1.46
2019-01-29T06:27:36.534Z,1.43
2019-01-29T06:28:36.518Z,1.38
2019-01-29T06:29:36.507Z,1.35
2019-01-29T06:30:36.483Z,1.35
2019-01-29T06:31:36.496Z,1.32
2019-01-29T06:32:36.439Z,1.36
2019-01-29T06:33:36.428Z,1.42
2019-01-29T06:34:36.452Z,1.35
2019-01-29T06:35:36.424Z,1.34
2019-01-29T06:36:36.446Z,1.32
2019-01-29T06:37:36.454Z,1.32
2019-01-29T06:38:36.373Z,1.46
2019-01-29T06:39:36.436Z,1.42
2019-01-29T06:40:36.371Z,1.44
2019-01-29T06:41:36.388Z,1.43
2019-01-29T06:42:36.411Z,1.42
2019-01-29T06:43:36.348Z,1.46
2019-01-29T06:44:36.435Z,1.43
2019-01-29T06:45:36.364Z,1.38
2019-01-29T06:46:36.361Z,1.35
2019-01-29T06:47:36.289Z,1.42
2019-01-29T06:48:36.270Z,1.47
2019-01-29T06:49:36.272Z,1.46
2019-01-29T06:50:36.305Z,1.39
2019-01-29T06:51:36.253Z,1.46
2019-01-29T06:52:36.239Z,1.35
2019-01-29T06:53:36.230Z,1.39
2019-01-29T06:54:36.255Z,1.42
2019-01-29T06:55:36.241Z,1.35
2019-01-29T06:56:36.213Z,1.34
2019-01-29T06:57:36.192Z,1.34
2019-01-29T06:58:36.171Z,1.42
2019-01-29T06:59:36.206Z,1.34
2019-01-29T07:00:36.179Z,1.29
2019-01-29T07:01:36.131Z,1.32
2019-01-29T07:02:36.153Z,1.32
2019-01-29T07:03:36.154Z,1.36
2019-01-29T07:04:36.107Z,1.34
2019-01-29T07:05:36.246Z,1.32
2019-01-29T07:06:36.088Z,1.34
2019-01-29T07:07:36.073Z,1.44
2019-01-29T07:08:36.115Z,1.39
2019-01-29T07:09:36.046Z,1.34
2019-01-29T07:10:36.223Z,1.39
2019-01-29T07:11:36.065Z,1.32
2019-01-29T07:12:36.064Z,1.34
2019-01-29T07:13:36.003Z,1.35
2019-01-29T07:14:36.052Z,1.29
2019-01-29T07:15:36.100Z,1.28
2019-01-29T07:16:36.011Z,1.24
2019-01-29T07:17:35.996Z,1.26
2019-01-29T07:18:36.004Z,1.29
2019-01-29T07:19:35.967Z,1.21
2019-01-29T07:20:35.949Z,1.20
2019-01-29T07:21:35.974Z,1.08
2019-01-29T07:22:35.908Z,1.07
2019-01-29T07:23:35.910Z,1.06
2019-01-29T07:24:42.788Z,1.00
2019-01-29T07:25:36.969Z,1.14
2019-01-29T07:26:35.920Z,1.06
2019-01-29T07:27:35.890Z,1.16
2019-01-29T07:28:35.873Z,1.04
2019-01-29T07:29:35.890Z,0.99
2019-01-29T07:30:35.927Z,1.11
2019-01-29T07:31:35.816Z,0.99
2019-01-29T07:32:35.870Z,1.04
2019-01-29T07:33:35.804Z,0.99
2019-01-29T07:34:35.807Z,1.04
2019-01-29T07:35:35.852Z,1.00
2019-01-29T07:36:35.789Z,1.04
2019-01-29T07:37:35.895Z,0.99
2019-01-29T07:38:35.747Z,0.98
2019-01-29T07:39:35.735Z,1.02
2019-01-29T07:40:35.722Z,1.00
2019-01-29T07:41:35.792Z,0.88
2019-01-29T07:42:35.781Z,0.93
2019-01-29T07:43:35.685Z,0.93
2019-01-29T07:44:35.751Z,0.93
2019-01-29T07:45:35.666Z,0.96
2019-01-29T07:46:35.664Z,0.89
2019-01-29T07:47:35.675Z,0.90
2019-01-29T07:48:35.641Z,0.90
2019-01-29T07:49:35.703Z,0.92
2019-01-29T07:50:35.622Z,0.80
2019-01-29T07:51:35.604Z,0.90
2019-01-29T07:52:35.637Z,0.95
2019-01-29T07:53:35.586Z,0.98
2019-01-29T07:54:35.597Z,0.95
2019-01-29T07:55:35.562Z,0.96
2019-01-29T07:56:35.566Z,1.06
2019-01-29T07:57:35.564Z,1.10
2019-01-29T07:58:35.589Z,1.11
2019-01-29T07:59:35.547Z,1.08
2019-01-29T08:00:35.614Z,1.07
2019-01-29T08:01:35.590Z,1.18
2019-01-29T08:02:35.586Z,1.10
2019-01-29T08:03:38.277Z,1.21
2019-01-29T08:04:35.533Z,1.31
2019-01-29T08:05:35.540Z,1.26
2019-01-29T08:06:35.457Z,1.36
2019-01-29T08:07:35.462Z,1.29
2019-01-29T08:08:35.478Z,1.35
2019-01-29T08:09:35.471Z,1.36
2019-01-29T08:10:35.502Z,1.38
2019-01-29T08:11:35.451Z,1.32
2019-01-29T08:12:35.398Z,1.32
2019-01-29T08:13:35.394Z,1.38
2019-01-29T08:14:35.416Z,1.35
2019-01-29T08:15:35.574Z,1.36
2019-01-29T08:16:35.428Z,1.44
2019-01-29T08:17:35.361Z,1.32
2019-01-29T08:18:35.333Z,1.43
2019-01-29T08:19:35.344Z,1.39
2019-01-29T08:20:35.494Z,1.49
2019-01-29T08:21:35.304Z,1.43
2019-01-29T08:22:35.469Z,1.52
2019-01-29T08:23:35.278Z,1.53
2019-01-29T08:24:35.288Z,1.49
2019-01-29T08:25:35.272Z,1.52
2019-01-29T08:26:35.252Z,1.42
2019-01-29T08:27:35.227Z,1.53
2019-01-29T08:28:35.228Z,1.49
2019-01-29T08:29:35.252Z,1.52
2019-01-29T08:30:35.278Z,1.54
2019-01-29T08:31:35.184Z,1.50
2019-01-29T08:32:35.172Z,1.52
2019-01-29T08:33:35.164Z,1.64
2019-01-29T08:34:35.190Z,1.61
2019-01-29T08:35:35.208Z,1.64
2019-01-29T08:36:35.148Z,1.65
2019-01-29T08:37:35.131Z,1.61
2019-01-29T08:38:35.134Z,1.60
2019-01-29T08:39:35.104Z,1.70
2019-01-29T08:40:35.116Z,1.68
2019-01-29T08:41:35.093Z,1.70
2019-01-29T08:42:35.296Z,1.67
2019-01-29T08:43:35.114Z,1.70
2019-01-29T08:44:35.094Z,1.74
2019-01-29T08:45:35.224Z,1.70
2019-01-29T08:46:35.038Z,1.77
2019-01-29T08:47:35.016Z,1.75
2019-01-29T08:48:35.034Z,1.77
2019-01-29T08:49:35.170Z,1.81
2019-01-29T08:50:35.047Z,1.70
2019-01-29T08:51:35.016Z,1.83
2019-01-29T08:52:34.959Z,1.79
2019-01-29T08:53:35.044Z,1.79
2019-01-29T08:54:34.978Z,1.83
2019-01-29T08:55:34.942Z,1.81
2019-01-29T08:56:34.974Z,1.81
2019-01-29T08:57:34.909Z,1.82
2019-01-29T08:58:34.923Z,1.85
2019-01-29T08:59:34.908Z,1.90
2019-01-29T09:00:34.875Z,2.02
2019-01-29T09:01:34.999Z,1.98
2019-01-29T09:02:34.961Z,2.00
2019-01-29T09:03:34.853Z,1.89
2019-01-29T09:04:34.853Z,1.93
2019-01-29T09:05:34.827Z,2.08
2019-01-29T09:06:34.881Z,1.95
2019-01-29T09:07:34.859Z,2.07
2019-01-29T09:08:34.862Z,1.95
2019-01-29T09:09:34.782Z,2.04
2019-01-29T09:10:34.792Z,2.05
2019-01-29T09:11:34.781Z,2.07
2019-01-29T09:12:34.776Z,2.05
2019-01-29T09:13:34.903Z,2.09
2019-01-29T09:14:34.742Z,2.09
2019-01-29T09:15:34.721Z,2.09
2019-01-29T09:16:34.705Z,2.12
2019-01-29T09:17:34.729Z,2.09
2019-01-29T09:18:34.760Z,2.12
2019-01-29T09:19:34.671Z,2.19
2019-01-29T09:20:34.669Z,2.09
2019-01-29T09:21:34.664Z,2.11
2019-01-29T09:22:34.675Z,2.11
2019-01-29T09:23:34.711Z,2.23
2019-01-29T09:24:34.698Z,2.23
2019-01-29T09:25:34.624Z,2.20
2019-01-29T09:26:34.611Z,2.26
2019-01-29T09:27:34.595Z,2.26
2019-01-29T09:28:34.621Z,2.25
2019-01-29T09:29:34.664Z,2.33
2019-01-29T09:30:34.581Z,2.36
2019-01-29T09:31:34.607Z,2.40
2019-01-29T09:32:34.536Z,2.41
2019-01-29T09:33:34.628Z,2.53
2019-01-29T09:34:34.559Z,2.47
2019-01-29T09:35:34.511Z,2.61
2019-01-29T09:36:34.486Z,2.61
2019-01-29T09:37:34.506Z,2.62
2019-01-29T09:38:34.499Z,2.58
2019-01-29T09:39:34.465Z,2.66
2019-01-29T09:40:34.486Z,2.65
2019-01-29T09:41:34.476Z,2.68
2019-01-29T09:42:34.499Z,2.71
2019-01-29T09:43:34.459Z,2.69
2019-01-29T09:44:34.405Z,2.76
2019-01-29T09:45:34.412Z,2.77
2019-01-29T09:46:34.464Z,2.74
2019-01-29T09:47:34.385Z,2.71
2019-01-29T09:48:34.396Z,2.76
2019-01-29T09:49:34.389Z,2.80
2019-01-29T09:50:34.372Z,2.71
2019-01-29T09:51:34.361Z,2.81
2019-01-29T09:52:34.350Z,2.86
2019-01-29T09:53:34.399Z,2.92
2019-01-29T09:54:34.365Z,2.83
2019-01-29T09:55:34.318Z,2.89
2019-01-29T09:56:34.309Z,2.95
2019-01-29T09:57:34.403Z,2.89
2019-01-29T09:58:34.259Z,2.90
2019-01-29T09:59:34.323Z,2.97
2019-01-29T10:00:34.239Z,2.98
2019-01-29T10:01:34.238Z,2.94
2019-01-29T10:02:34.274Z,3.01
2019-01-29T10:03:34.202Z,3.04
2019-01-29T10:04:34.282Z,3.01
2019-01-29T10:05:34.188Z,3.07
2019-01-29T10:06:34.200Z,3.08
2019-01-29T10:07:34.173Z,3.16
2019-01-29T10:08:34.153Z,3.13
2019-01-29T10:09:34.337Z,3.25
2019-01-29T10:10:34.141Z,3.08
2019-01-29T10:11:34.147Z,3.10
2019-01-29T10:12:34.240Z,3.19
2019-01-29T10:13:34.111Z,3.07
2019-01-29T10:14:34.230Z,3.17
2019-01-29T10:15:34.080Z,3.04
2019-01-29T10:16:34.091Z,3.08
2019-01-29T10:17:34.069Z,3.10
2019-01-29T10:18:34.088Z,3.02
2019-01-29T10:19:34.040Z,2.97
2019-01-29T10:20:34.092Z,3.12
2019-01-29T10:21:34.027Z,3.12
2019-01-29T10:22:34.029Z,3.05
2019-01-29T10:23:33.997Z,3.17
2019-01-29T10:24:33.983Z,3.13
2019-01-29T10:25:37.938Z,3.04
2019-01-29T10:26:34.109Z,3.07
2019-01-29T10:27:33.972Z,3.15
2019-01-29T10:28:33.994Z,3.15
2019-01-29T10:29:33.948Z,3.15
2019-01-29T10:30:33.950Z,3.16
2019-01-29T10:31:33.985Z,3.20
2019-01-29T10:32:33.907Z,3.17
2019-01-29T10:33:33.904Z,3.25
2019-01-29T10:34:33.897Z,3.30
2019-01-29T10:35:33.895Z,3.20
2019-01-29T10:36:33.862Z,3.15
2019-01-29T10:37:33.890Z,3.15
2019-01-29T10:38:33.919Z,3.08
2019-01-29T10:39:33.842Z,3.19
2019-01-29T10:40:33.908Z,3.22
2019-01-29T10:41:33.810Z,3.22
2019-01-29T10:42:33.795Z,3.26
2019-01-29T10:43:33.811Z,3.13
2019-01-29T10:44:33.785Z,3.33
2019-01-29T10:45:33.770Z,3.37
2019-01-29T10:46:33.792Z,3.31
2019-01-29T10:47:33.794Z,3.49
2019-01-29T10:48:33.733Z,3.35
2019-01-29T10:49:33.725Z,3.31
2019-01-29T10:50:33.722Z,3.39
2019-01-29T10:51:33.793Z,3.49
2019-01-29T10:52:34.575Z,3.44
2019-01-29T10:53:33.680Z,3.50
2019-01-29T10:54:33.855Z,3.45
2019-01-29T10:55:33.655Z,3.59
2019-01-29T10:56:33.679Z,3.68
2019-01-29T10:57:33.787Z,3.78
2019-01-29T10:58:33.641Z,3.75
2019-01-29T10:59:33.622Z,3.84
2019-01-29T11:00:33.719Z,3.84
2019-01-29T11:01:33.600Z,3.82
2019-01-29T11:02:33.631Z,3.88
2019-01-29T11:03:33.583Z,3.84
2019-01-29T11:04:33.565Z,3.92
2019-01-29T11:05:33.852Z,3.88
2019-01-29T11:06:33.540Z,3.84
2019-01-29T11:07:33.633Z,3.82
2019-01-29T11:08:33.537Z,3.90
2019-01-29T11:09:33.674Z,3.93
2019-01-29T11:10:33.529Z,3.95
2019-01-29T11:11:33.518Z,4.00
2019-01-29T11:12:33.507Z,3.99
2019-01-29T11:13:33.492Z,3.95
2019-01-29T11:14:33.481Z,3.96
2019-01-29T11:15:33.450Z,4.07
2019-01-29T11:16:33.445Z,4.10
2019-01-29T11:17:33.492Z,4.13
2019-01-29T11:18:33.470Z,4.04
2019-01-29T11:19:34.568Z,4.16
2019-01-29T11:20:33.394Z,4.04
2019-01-29T11:21:33.438Z,4.07
2019-01-29T11:22:33.398Z,4.08
2019-01-29T11:23:33.364Z,4.08
2019-01-29T11:24:33.356Z,4.21
2019-01-29T11:25:33.406Z,4.16
2019-01-29T11:26:33.341Z,4.14
2019-01-29T11:27:33.372Z,4.08
2019-01-29T11:28:33.310Z,4.14
2019-01-29T11:29:33.394Z,4.07
2019-01-29T11:30:33.303Z,3.96
2019-01-29T11:31:33.303Z,3.93
2019-01-29T11:32:33.296Z,3.86
2019-01-29T11:33:33.307Z,3.82
2019-01-29T11:34:33.249Z,3.74
2019-01-29T11:35:33.332Z,3.75
2019-01-29T11:36:33.246Z,3.71
2019-01-29T11:37:33.237Z,3.63
2019-01-29T11:38:33.202Z,3.71
2019-01-29T11:39:33.214Z,3.77
2019-01-29T11:40:33.239Z,3.67
2019-01-29T11:41:33.178Z,3.68
2019-01-29T11:42:33.190Z,3.68
2019-01-29T11:43:33.181Z,3.68
2019-01-29T11:44:33.142Z,3.70
2019-01-29T11:45:33.234Z,3.74
2019-01-29T11:46:33.145Z,3.82
2019-01-29T11:47:33.140Z,3.82
2019-01-29T11:48:33.099Z,3.90
2019-01-29T11:49:33.089Z,3.86
2019-01-29T11:50:33.099Z,3.93
2019-01-29T11:51:33.072Z,3.86
2019-01-29T11:52:33.086Z,3.84
2019-01-29T11:53:33.064Z,3.89
2019-01-29T11:54:33.033Z,3.93
2019-01-29T11:55:33.028Z,3.95
2019-01-29T11:56:33.036Z,3.93
2019-01-29T11:57:33.067Z,4.02
2019-01-29T11:58:32.994Z,4.11
2019-01-29T11:59:33.035Z,4.08
2019-01-29T12:00:33.004Z,4.10
2019-01-29T12:01:32.956Z,4.14
2019-01-29T12:02:32.994Z,4.25
2019-01-29T12:03:32.977Z,4.26
2019-01-29T12:04:32.955Z,4.29
2019-01-29T12:05:32.941Z,4.31
2019-01-29T12:06:32.916Z,4.31
2019-01-29T12:07:32.987Z,4.42
2019-01-29T12:08:32.887Z,4.39
2019-01-29T12:09:32.919Z,4.43
2019-01-29T12:10:32.889Z,4.53
2019-01-29T12:11:32.925Z,4.62
2019-01-29T12:12:32.905Z,4.59
2019-01-29T12:13:32.836Z,4.69
2019-01-29T12:14:32.833Z,4.64
2019-01-29T12:15:32.832Z,4.67
2019-01-29T12:16:32.846Z,4.68
2019-01-29T12:17:32.817Z,4.75
2019-01-29T12:18:32.784Z,4.91
2019-01-29T12:19:32.792Z,4.94
2019-01-29T12:20:32.761Z,4.91
2019-01-29T12:21:32.759Z,5.02
2019-01-29T12:22:32.851Z,5.05
2019-01-29T12:23:32.725Z,4.99
2019-01-29T12:24:32.718Z,4.91
2019-01-29T12:25:33.225Z,5.04
2019-01-29T12:26:32.705Z,5.06
2019-01-29T12:27:32.680Z,5.22
2019-01-29T12:28:32.791Z,5.12
2019-01-29T12:29:32.701Z,5.14
2019-01-29T12:30:32.655Z,5.23
2019-01-29T12:31:32.671Z,5.14
2019-01-29T12:32:32.642Z,5.09
2019-01-29T12:33:32.641Z,5.06
2019-01-29T12:34:32.613Z,5.12
2019-01-29T12:35:32.596Z,5.11
2019-01-29T12:36:32.620Z,5.14
2019-01-29T12:37:32.572Z,5.17
2019-01-29T12:38:32.603Z,5.15
2019-01-29T12:39:32.553Z,5.14
2019-01-29T12:40:32.546Z,5.14
2019-01-29T12:41:32.543Z,5.19
2019-01-29T12:42:32.554Z,5.20
2019-01-29T12:43:32.519Z,5.30
2019-01-29T12:44:32.581Z,5.32
2019-01-29T12:45:32.486Z,5.32
2019-01-29T12:46:32.478Z,5.35
2019-01-29T12:47:32.505Z,5.35
2019-01-29T12:48:32.463Z,5.41
2019-01-29T12:49:32.474Z,5.35
2019-01-29T12:50:32.460Z,5.29
2019-01-29T12:51:32.432Z,5.33
2019-01-29T12:52:32.436Z,5.35
2019-01-29T12:53:32.402Z,5.26
2019-01-29T12:54:32.462Z,5.24
2019-01-29T12:55:32.384Z,5.12
2019-01-29T12:56:32.397Z,5.29
2019-01-29T12:57:32.454Z,5.19
2019-01-29T12:58:32.358Z,5.19
2019-01-29T12:59:32.372Z,5.24
2019-01-29T13:00:32.332Z,5.20
2019-01-29T13:01:32.418Z,5.24
2019-01-29T13:02:32.353Z,5.15
2019-01-29T13:03:32.329Z,5.08
2019-01-29T13:04:32.343Z,5.15
2019-01-29T13:05:32.836Z,5.04
2019-01-29T13:06:32.310Z,5.06
2019-01-29T13:07:32.258Z,5.01
2019-01-29T13:08:32.273Z,5.01
2019-01-29T13:09:32.269Z,5.01
2019-01-29T13:10:32.228Z,5.09
2019-01-29T13:11:32.210Z,5.66
2019-01-29T13:12:32.203Z,5.95
2019-01-29T13:13:32.238Z,6.57
2019-01-29T13:14:32.205Z,7.11
2019-01-29T13:15:32.308Z,7.27
2019-01-29T13:16:32.158Z,7.37
2019-01-29T13:17:32.170Z,7.62
2019-01-29T13:18:32.150Z,7.81